Hauptseite
METAR-TAF:

METAR-TAF

Flughäfen :

Triest, Italien

Breite: 45-39N, Länge: 013-45E, Höhe: 8 m

Beobachtung

Neuester Wetterbericht von vor 59 Minuten, um 17:55 UTC
Wind 3 kt aus Ost
Temperatur 18°C
Luftfeuchtigkeit 88%
Luftdruck 1005 hPa
Sichtweite 10 km oder mehr
Durchbrochene Bewölkung in der Höhe von 4000 ft

METAR: LIVT 301755Z 08003KT 9999 BKN040 18/16 Q1005 RMK BKN QUK 2 QUL 1 NE VIS MAR 10 KM VIS MIN 9999

Zeit: 20:54 (18:54 UTC)


TAF: fehlend

Wetterbeobachtungen und Prognosen von mehr als 4000 Flughäfen (METAR und TAF Bericht).

Die verfügbaren Stationen werden durch gelbe und rote Markierungen auf der Karte dargestellt.

Führen Sie die Maus auf sie, um den Namen der Station zu sehen.

Darauf klicken, um die Beobachtung von Wetterbeobachtungen und Prognosen zu sehen.

Um die Karte zu ändern : klicken Sie auf den grünen Tasten mit einem schwarzen Kreuz Zum Vergrößern, auf den grünen Button mit einem Gedankenstrich zu verkleinern, oder auf die grünen Pfeile für benachbarte Karten.


METAR-TAF: